createdAt,value
2018-12-15T00:00:23.683Z,22.89
2018-12-15T00:02:53.057Z,22.87
2018-12-15T00:05:22.466Z,22.88
2018-12-15T00:07:51.780Z,22.93
2018-12-15T00:10:21.264Z,22.99
2018-12-15T00:12:50.556Z,23.04
2018-12-15T00:15:19.867Z,22.99
2018-12-15T00:17:49.471Z,22.92
2018-12-15T00:20:18.883Z,22.89
2018-12-15T00:22:48.320Z,22.97
2018-12-15T00:25:17.485Z,23.01
2018-12-15T00:27:46.791Z,23.05
2018-12-15T00:30:16.197Z,23.08
2018-12-15T00:32:45.461Z,23.06
2018-12-15T00:35:14.906Z,23.04
2018-12-15T00:37:44.300Z,22.99
2018-12-15T00:40:13.729Z,22.96
2018-12-15T00:42:42.909Z,23.03
2018-12-15T00:45:12.405Z,23.01
2018-12-15T00:47:41.811Z,23.07
2018-12-15T00:50:11.230Z,23.07
2018-12-15T00:52:40.631Z,23.08
2018-12-15T00:55:09.820Z,23.06
2018-12-15T00:57:39.103Z,23.01
2018-12-15T01:00:08.279Z,23.01
2018-12-15T01:02:37.435Z,22.95
2018-12-15T01:05:06.725Z,22.97
2018-12-15T01:07:36.223Z,22.89
2018-12-15T01:10:05.832Z,22.94
2018-12-15T01:12:35.129Z,22.94
2018-12-15T01:15:04.464Z,22.95
2018-12-15T01:17:33.941Z,22.99
2018-12-15T01:20:03.241Z,22.93
2018-12-15T01:22:32.556Z,22.99
2018-12-15T01:25:01.693Z,23.08
2018-12-15T01:27:31.031Z,23.05
2018-12-15T01:30:00.350Z,23.02
2018-12-15T01:32:29.651Z,23.04
2018-12-15T01:34:58.835Z,23.01
2018-12-15T01:37:27.983Z,23.04
2018-12-15T01:39:57.134Z,22.96
2018-12-15T01:42:26.470Z,22.99
2018-12-15T01:44:56.188Z,23.02
2018-12-15T01:47:27.115Z,23.03
2018-12-15T01:49:56.492Z,23.10
2018-12-15T01:52:25.744Z,23.09
2018-12-15T01:54:55.006Z,23.13
2018-12-15T01:57:24.283Z,22.97
2018-12-15T01:59:53.683Z,23.04
2018-12-15T02:02:23.031Z,22.98
2018-12-15T02:04:52.419Z,23.00
2018-12-15T02:07:21.739Z,22.96
2018-12-15T02:09:51.007Z,23.05
2018-12-15T02:12:20.503Z,23.04
2018-12-15T02:14:49.911Z,23.02
2018-12-15T02:17:19.229Z,22.96
2018-12-15T02:19:51.496Z,23.08
2018-12-15T02:22:20.792Z,23.03
2018-12-15T02:24:50.205Z,23.06
2018-12-15T02:27:19.509Z,23.06
2018-12-15T02:29:49.008Z,22.93
2018-12-15T02:32:18.407Z,22.95
2018-12-15T02:34:47.809Z,22.93
2018-12-15T02:37:17.110Z,22.97
2018-12-15T02:39:46.397Z,22.90
2018-12-15T02:42:15.721Z,22.94
2018-12-15T02:44:45.043Z,22.86
2018-12-15T02:47:14.400Z,22.96
2018-12-15T02:49:43.725Z,23.03
2018-12-15T02:52:13.023Z,22.95
2018-12-15T02:54:42.436Z,22.87
2018-12-15T02:57:11.727Z,22.88
2018-12-15T02:59:41.024Z,22.89
2018-12-15T03:02:10.439Z,22.94
2018-12-15T03:04:39.635Z,22.93
2018-12-15T03:07:08.927Z,22.92
2018-12-15T03:09:38.115Z,22.92
2018-12-15T03:12:07.418Z,22.93
2018-12-15T03:14:36.616Z,22.98
2018-12-15T03:17:07.570Z,22.90
2018-12-15T03:19:36.872Z,22.93
2018-12-15T03:22:06.276Z,22.93
2018-12-15T03:24:35.561Z,22.96
2018-12-15T03:27:04.883Z,22.92
2018-12-15T03:29:34.377Z,22.97
2018-12-15T03:32:03.782Z,22.87
2018-12-15T03:34:33.099Z,22.93
2018-12-15T03:37:02.401Z,22.87
2018-12-15T03:39:31.597Z,22.89
2018-12-15T03:42:00.993Z,22.91
2018-12-15T03:44:30.384Z,22.93
2018-12-15T03:46:59.799Z,22.88
2018-12-15T03:49:29.120Z,22.93
2018-12-15T03:51:58.493Z,22.89
2018-12-15T03:54:27.713Z,22.90
2018-12-15T03:56:57.004Z,22.89
2018-12-15T03:59:26.705Z,22.84
2018-12-15T04:01:55.861Z,22.91
2018-12-15T04:04:25.269Z,22.93
2018-12-15T04:06:54.521Z,22.92
2018-12-15T04:09:23.929Z,22.96
2018-12-15T04:11:53.320Z,22.93
2018-12-15T04:14:22.720Z,22.94
2018-12-15T04:16:51.925Z,22.98
2018-12-15T04:19:21.335Z,22.98
2018-12-15T04:21:50.848Z,22.91
2018-12-15T04:24:20.135Z,22.88
2018-12-15T04:26:49.451Z,22.86
2018-12-15T04:29:18.928Z,22.84
2018-12-15T04:31:48.250Z,22.84
2018-12-15T04:34:17.730Z,22.91
2018-12-15T04:36:47.164Z,22.89
2018-12-15T04:39:16.645Z,22.86
2018-12-15T04:41:46.104Z,22.92
2018-12-15T04:44:15.720Z,22.91
2018-12-15T04:46:45.224Z,22.99
2018-12-15T04:49:14.591Z,22.97
2018-12-15T04:51:44.097Z,22.90
2018-12-15T04:54:13.582Z,22.92
2018-12-15T04:56:42.844Z,22.97
2018-12-15T04:59:12.196Z,22.91
2018-12-15T05:01:41.614Z,22.96
2018-12-15T05:04:10.917Z,22.98
2018-12-15T05:06:40.194Z,22.88
2018-12-15T05:09:09.444Z,22.89
2018-12-15T05:11:38.801Z,22.80
2018-12-15T05:14:07.917Z,22.79
2018-12-15T05:16:37.305Z,22.86
2018-12-15T05:19:06.617Z,22.96
2018-12-15T05:21:35.910Z,22.99
2018-12-15T05:24:05.321Z,22.97
2018-12-15T05:26:34.641Z,22.95
2018-12-15T05:29:04.003Z,22.95
2018-12-15T05:31:33.404Z,22.92
2018-12-15T05:34:02.624Z,22.82
2018-12-15T05:36:31.961Z,22.89
2018-12-15T05:39:01.323Z,23.02
2018-12-15T05:41:30.764Z,23.16
2018-12-15T05:44:00.134Z,23.46
2018-12-15T05:46:29.348Z,23.62
2018-12-15T05:48:58.518Z,23.66
2018-12-15T05:51:27.912Z,23.78
2018-12-15T05:54:01.482Z,23.80
2018-12-15T05:56:31.069Z,23.93
2018-12-15T05:59:00.564Z,24.16
2018-12-15T06:01:30.055Z,24.06
2018-12-15T06:03:59.452Z,24.07
2018-12-15T06:06:28.718Z,23.94
2018-12-15T06:08:58.061Z,23.86
2018-12-15T06:11:27.457Z,23.82
2018-12-15T06:13:56.771Z,23.24
2018-12-15T06:16:26.376Z,23.02
2018-12-15T06:18:55.872Z,23.11
2018-12-15T06:21:25.175Z,23.27
2018-12-15T06:23:54.583Z,23.38
2018-12-15T06:26:23.988Z,23.31
2018-12-15T06:28:53.381Z,23.38
2018-12-15T06:31:22.706Z,23.41
2018-12-15T06:33:51.987Z,23.41
2018-12-15T06:36:21.306Z,23.32
2018-12-15T06:38:50.364Z,23.28
2018-12-15T06:41:19.701Z,23.29
2018-12-15T06:43:49.272Z,23.28
2018-12-15T06:46:18.562Z,23.25
2018-12-15T06:48:47.796Z,23.29
2018-12-15T06:51:17.307Z,23.24
2018-12-15T06:53:46.714Z,23.25
2018-12-15T06:56:16.013Z,23.18
2018-12-15T06:58:45.414Z,23.20
2018-12-15T07:01:14.715Z,23.23
2018-12-15T07:03:43.929Z,23.25
2018-12-15T07:06:13.219Z,23.16
2018-12-15T07:08:42.707Z,23.13
2018-12-15T07:11:12.111Z,23.13
2018-12-15T07:13:41.345Z,23.09
2018-12-15T07:16:10.656Z,23.07
2018-12-15T07:18:44.835Z,23.07
2018-12-15T07:21:11.485Z,23.08
2018-12-15T07:23:40.880Z,23.13
2018-12-15T07:26:10.387Z,23.13
2018-12-15T07:28:39.796Z,23.10
2018-12-15T07:31:09.288Z,23.15
2018-12-15T07:33:38.530Z,23.14
2018-12-15T07:36:07.891Z,23.12
2018-12-15T07:38:37.219Z,23.11
2018-12-15T07:41:06.599Z,23.18
2018-12-15T07:43:35.907Z,23.20
2018-12-15T07:46:05.303Z,23.17
2018-12-15T07:48:34.612Z,23.11
2018-12-15T07:51:04.044Z,23.01
2018-12-15T07:53:33.220Z,23.06
2018-12-15T07:56:02.711Z,23.07
2018-12-15T07:58:32.131Z,23.09
2018-12-15T08:01:01.623Z,23.07
2018-12-15T08:03:31.048Z,23.07
2018-12-15T08:06:00.428Z,23.04
2018-12-15T08:08:29.640Z,23.10
2018-12-15T08:11:03.943Z,23.07
2018-12-15T08:13:33.460Z,23.06
2018-12-15T08:16:02.966Z,23.03
2018-12-15T08:18:32.471Z,23.00
2018-12-15T08:21:01.663Z,23.07
2018-12-15T08:23:30.981Z,23.07
2018-12-15T08:26:00.371Z,23.05
2018-12-15T08:28:29.576Z,23.08
2018-12-15T08:30:58.976Z,23.11
2018-12-15T08:33:28.398Z,23.16
2018-12-15T08:35:57.583Z,23.10
2018-12-15T08:38:26.991Z,23.09
2018-12-15T08:40:56.491Z,23.10
2018-12-15T08:43:25.899Z,23.14
2018-12-15T08:45:55.873Z,23.11
2018-12-15T08:48:25.216Z,23.16
2018-12-15T08:50:54.875Z,23.18
2018-12-15T08:53:24.123Z,23.20
2018-12-15T08:55:53.440Z,23.18
2018-12-15T08:58:22.694Z,23.14
2018-12-15T09:00:51.827Z,23.14
2018-12-15T09:03:21.119Z,23.12
2018-12-15T09:05:50.279Z,23.08
2018-12-15T09:08:19.629Z,23.13
2018-12-15T09:10:49.024Z,23.06
2018-12-15T09:13:18.526Z,23.08
2018-12-15T09:15:47.831Z,23.08
2018-12-15T09:18:17.239Z,23.06
2018-12-15T09:20:46.654Z,23.05
2018-12-15T09:23:15.940Z,23.04
2018-12-15T09:25:45.266Z,23.05
2018-12-15T09:28:14.562Z,23.09
2018-12-15T09:30:43.944Z,23.05
2018-12-15T09:33:13.352Z,23.10
2018-12-15T09:35:42.659Z,23.01
2018-12-15T09:38:12.064Z,23.05
2018-12-15T09:40:41.474Z,23.01
2018-12-15T09:43:10.802Z,22.99
2018-12-15T09:45:39.973Z,22.93
2018-12-15T09:48:09.464Z,22.95
2018-12-15T09:50:38.692Z,22.93
2018-12-15T09:53:08.063Z,22.98
2018-12-15T09:55:37.375Z,22.95
2018-12-15T09:58:06.788Z,22.98
2018-12-15T10:00:36.194Z,22.96
2018-12-15T10:03:05.483Z,23.01
2018-12-15T10:05:34.688Z,23.03
2018-12-15T10:08:03.717Z,23.03
2018-12-15T10:10:32.988Z,23.04
2018-12-15T10:13:02.352Z,23.04
2018-12-15T10:15:31.655Z,23.05
2018-12-15T10:18:00.946Z,23.18
2018-12-15T10:20:30.295Z,23.33
2018-12-15T10:22:59.588Z,23.46
2018-12-15T10:25:28.904Z,23.61
2018-12-15T10:27:58.097Z,23.75
2018-12-15T10:30:32.399Z,23.83
2018-12-15T10:33:01.922Z,23.97
2018-12-15T10:35:31.311Z,24.07
2018-12-15T10:38:00.602Z,24.01
2018-12-15T10:40:29.816Z,24.01
2018-12-15T10:42:59.116Z,23.97
2018-12-15T10:45:28.531Z,23.88
2018-12-15T10:47:57.827Z,23.75
2018-12-15T10:50:27.129Z,23.68
2018-12-15T10:52:56.420Z,23.71
2018-12-15T10:55:25.821Z,23.65
2018-12-15T10:57:55.204Z,23.56
2018-12-15T11:00:29.408Z,23.54
2018-12-15T11:02:58.638Z,23.53
2018-12-15T11:05:27.853Z,23.50
2018-12-15T11:07:57.150Z,23.50
2018-12-15T11:10:26.560Z,23.49
2018-12-15T11:12:55.940Z,23.50
2018-12-15T11:15:25.387Z,23.53
2018-12-15T11:17:54.650Z,23.48
2018-12-15T11:20:24.053Z,23.45
2018-12-15T11:22:53.265Z,23.47
2018-12-15T11:25:22.592Z,23.56
2018-12-15T11:27:51.870Z,23.57
2018-12-15T11:30:21.257Z,23.50
2018-12-15T11:32:50.672Z,23.49
2018-12-15T11:35:20.067Z,23.47
2018-12-15T11:37:49.592Z,23.50
2018-12-15T11:40:18.891Z,23.45
2018-12-15T11:42:48.195Z,23.45
2018-12-15T11:45:17.589Z,23.41
2018-12-15T11:47:46.994Z,23.45
2018-12-15T11:50:16.304Z,23.47
2018-12-15T11:52:45.595Z,23.44
2018-12-15T11:55:14.942Z,23.46
2018-12-15T11:57:44.306Z,23.44
2018-12-15T12:00:13.891Z,23.41
2018-12-15T12:02:43.112Z,23.36
2018-12-15T12:05:12.531Z,23.45
2018-12-15T12:07:41.913Z,23.39
2018-12-15T12:10:11.203Z,23.45
2018-12-15T12:12:40.416Z,23.49
2018-12-15T12:15:09.912Z,23.45
2018-12-15T12:17:39.323Z,23.43
2018-12-15T12:20:09.027Z,23.38
2018-12-15T12:22:38.241Z,23.42
2018-12-15T12:25:07.529Z,23.39
2018-12-15T12:27:36.733Z,23.42
2018-12-15T12:30:05.835Z,23.37
2018-12-15T12:32:35.145Z,23.38
2018-12-15T12:35:04.432Z,23.38
2018-12-15T12:37:33.931Z,23.44
2018-12-15T12:40:03.457Z,23.44
2018-12-15T12:42:32.519Z,23.45
2018-12-15T12:45:01.846Z,23.45
2018-12-15T12:47:31.685Z,23.37
2018-12-15T12:50:01.158Z,23.41
2018-12-15T12:52:30.686Z,23.42
2018-12-15T12:55:00.062Z,23.38
2018-12-15T12:57:29.383Z,23.36
2018-12-15T12:59:58.755Z,23.41
2018-12-15T13:02:28.086Z,23.42
2018-12-15T13:04:57.443Z,23.39
2018-12-15T13:07:26.686Z,23.34
2018-12-15T13:09:55.972Z,23.40
2018-12-15T13:12:25.049Z,23.40
2018-12-15T13:14:54.284Z,23.37
2018-12-15T13:17:23.592Z,23.32
2018-12-15T13:19:52.885Z,23.38
2018-12-15T13:22:22.191Z,23.37
2018-12-15T13:24:51.576Z,23.37
2018-12-15T13:27:20.932Z,23.39
2018-12-15T13:29:50.267Z,23.40
2018-12-15T13:32:19.691Z,23.39
2018-12-15T13:34:49.000Z,23.39
2018-12-15T13:37:18.544Z,23.45
2018-12-15T13:39:47.995Z,23.42
2018-12-15T13:42:17.401Z,23.44
2018-12-15T13:44:46.726Z,23.50
2018-12-15T13:47:16.122Z,23.48
2018-12-15T13:49:45.427Z,23.61
2018-12-15T13:52:14.820Z,23.50
2018-12-15T13:54:44.131Z,23.52
2018-12-15T13:57:13.327Z,23.52
2018-12-15T13:59:42.380Z,23.46
2018-12-15T14:02:11.622Z,23.46
2018-12-15T14:04:41.025Z,23.42
2018-12-15T14:07:10.520Z,23.46
2018-12-15T14:09:39.816Z,23.42
2018-12-15T14:12:09.127Z,23.48
2018-12-15T14:14:38.316Z,23.46
2018-12-15T14:17:07.763Z,23.41
2018-12-15T14:19:37.131Z,23.38
2018-12-15T14:22:06.396Z,23.50
2018-12-15T14:24:35.640Z,23.46
2018-12-15T14:27:04.956Z,23.47
2018-12-15T14:29:34.328Z,23.47
2018-12-15T14:32:03.753Z,23.53
2018-12-15T14:34:33.150Z,23.56
2018-12-15T14:37:02.555Z,23.48
2018-12-15T14:39:31.952Z,23.53
2018-12-15T14:42:01.163Z,23.52
2018-12-15T14:44:30.351Z,23.48
2018-12-15T14:46:59.800Z,23.50
2018-12-15T14:49:29.044Z,23.46
2018-12-15T14:51:58.543Z,23.48
2018-12-15T14:54:27.957Z,23.49
2018-12-15T14:56:57.351Z,23.45
2018-12-15T14:59:26.483Z,23.46
2018-12-15T15:01:55.739Z,23.44
2018-12-15T15:04:25.055Z,23.47
2018-12-15T15:06:54.355Z,23.44
2018-12-15T15:09:23.574Z,23.42
2018-12-15T15:11:52.861Z,23.43
2018-12-15T15:14:22.272Z,23.54
2018-12-15T15:16:51.565Z,23.66
2018-12-15T15:19:20.979Z,23.78
2018-12-15T15:21:50.264Z,23.77
2018-12-15T15:24:19.678Z,23.82
2018-12-15T15:26:48.931Z,23.79
2018-12-15T15:29:18.390Z,23.69
2018-12-15T15:31:47.793Z,23.71
2018-12-15T15:34:17.212Z,23.76
2018-12-15T15:36:46.495Z,23.69
2018-12-15T15:39:15.687Z,23.58
2018-12-15T15:41:44.919Z,23.62
2018-12-15T15:44:14.292Z,23.62
2018-12-15T15:46:43.703Z,23.49
2018-12-15T15:49:13.195Z,23.51
2018-12-15T15:51:42.603Z,23.47
2018-12-15T15:54:11.923Z,23.54
2018-12-15T15:56:40.868Z,23.48
2018-12-15T15:59:10.206Z,23.46
2018-12-15T16:01:39.612Z,23.46
2018-12-15T16:04:08.899Z,23.51
2018-12-15T16:06:37.976Z,23.47
2018-12-15T16:09:09.579Z,23.42
2018-12-15T16:11:39.179Z,23.37
2018-12-15T16:14:08.575Z,23.34
2018-12-15T16:16:37.877Z,23.35
2018-12-15T16:19:07.384Z,23.42
2018-12-15T16:21:36.775Z,23.34
2018-12-15T16:24:05.996Z,23.25
2018-12-15T16:26:35.278Z,23.32
2018-12-15T16:29:04.581Z,23.33
2018-12-15T16:31:33.874Z,23.38
2018-12-15T16:34:03.213Z,23.39
2018-12-15T16:36:32.570Z,23.41
2018-12-15T16:39:01.983Z,23.40
2018-12-15T16:41:31.387Z,23.47
2018-12-15T16:44:00.720Z,23.46
2018-12-15T16:46:30.010Z,23.45
2018-12-15T16:48:59.314Z,23.54
2018-12-15T16:51:28.720Z,23.63
2018-12-15T16:53:58.024Z,23.64
2018-12-15T16:56:27.511Z,23.56
2018-12-15T16:58:57.023Z,23.51
2018-12-15T17:01:26.430Z,23.47
2018-12-15T17:03:55.839Z,23.44
2018-12-15T17:06:25.228Z,23.42
2018-12-15T17:08:54.552Z,23.43
2018-12-15T17:11:23.846Z,23.43
2018-12-15T17:13:53.338Z,23.41
2018-12-15T17:16:22.840Z,23.30
2018-12-15T17:18:52.872Z,23.33
2018-12-15T17:21:22.392Z,23.32
2018-12-15T17:23:51.872Z,23.35
2018-12-15T17:26:21.283Z,23.29
2018-12-15T17:28:50.684Z,23.34
2018-12-15T17:31:20.088Z,23.27
2018-12-15T17:33:49.453Z,23.36
2018-12-15T17:36:18.823Z,23.40
2018-12-15T17:38:48.305Z,23.33
2018-12-15T17:41:17.710Z,23.28
2018-12-15T17:43:46.984Z,23.30
2018-12-15T17:46:16.331Z,23.39
2018-12-15T17:48:45.715Z,23.37
2018-12-15T17:51:15.102Z,23.29
2018-12-15T17:53:44.483Z,23.24
2018-12-15T17:56:13.726Z,23.33
2018-12-15T17:58:43.029Z,23.41
2018-12-15T18:01:12.433Z,23.33
2018-12-15T18:03:41.923Z,23.39
2018-12-15T18:06:11.313Z,23.37
2018-12-15T18:08:40.922Z,23.29
2018-12-15T18:11:10.391Z,23.25
2018-12-15T18:13:40.076Z,23.25
2018-12-15T18:16:09.424Z,23.28
2018-12-15T18:18:38.932Z,23.31
2018-12-15T18:21:10.003Z,23.30
2018-12-15T18:23:39.607Z,23.28
2018-12-15T18:26:09.178Z,23.31
2018-12-15T18:28:38.700Z,23.30
2018-12-15T18:31:07.950Z,23.28
2018-12-15T18:33:37.617Z,23.31
2018-12-15T18:36:07.154Z,23.38
2018-12-15T18:38:36.687Z,23.35
2018-12-15T18:41:06.121Z,23.34
2018-12-15T18:43:35.534Z,23.32
2018-12-15T18:46:04.869Z,23.35
2018-12-15T18:48:34.395Z,23.29
2018-12-15T18:51:03.694Z,23.29
2018-12-15T18:53:33.085Z,23.29
2018-12-15T18:56:02.576Z,23.30
2018-12-15T18:58:31.913Z,23.31
2018-12-15T19:01:01.434Z,23.30
2018-12-15T19:03:30.704Z,23.27
2018-12-15T19:06:00.141Z,23.28
2018-12-15T19:08:29.461Z,23.28
2018-12-15T19:10:58.884Z,23.31
2018-12-15T19:13:28.243Z,23.29
2018-12-15T19:15:57.736Z,23.26
2018-12-15T19:18:27.141Z,23.25
2018-12-15T19:20:56.665Z,23.27
2018-12-15T19:23:26.044Z,23.27
2018-12-15T19:25:55.473Z,23.30
2018-12-15T19:28:24.778Z,23.27
2018-12-15T19:30:54.064Z,23.29
2018-12-15T19:33:23.537Z,23.26
2018-12-15T19:35:52.992Z,23.24
2018-12-15T19:38:23.372Z,23.28
2018-12-15T19:40:52.901Z,23.28
2018-12-15T19:43:22.232Z,23.34
2018-12-15T19:45:51.632Z,23.27
2018-12-15T19:48:21.046Z,23.27
2018-12-15T19:50:50.542Z,23.25
2018-12-15T19:53:19.956Z,23.27
2018-12-15T19:55:49.223Z,23.27
2018-12-15T19:58:18.682Z,23.28
2018-12-15T20:00:48.160Z,23.22
2018-12-15T20:03:17.412Z,23.24
2018-12-15T20:05:46.693Z,23.24
2018-12-15T20:08:16.168Z,23.25
2018-12-15T20:10:45.611Z,23.17
2018-12-15T20:13:14.908Z,23.23
2018-12-15T20:15:44.200Z,23.45
2018-12-15T20:18:13.396Z,23.77
2018-12-15T20:20:42.859Z,23.89
2018-12-15T20:23:12.388Z,23.99
2018-12-15T20:25:41.770Z,24.09
2018-12-15T20:28:11.200Z,24.11
2018-12-15T20:30:40.543Z,23.88
2018-12-15T20:33:09.702Z,23.80
2018-12-15T20:35:39.095Z,23.73
2018-12-15T20:38:08.504Z,23.75
2018-12-15T20:40:37.787Z,23.68
2018-12-15T20:43:07.093Z,23.64
2018-12-15T20:45:36.440Z,23.63
2018-12-15T20:48:05.587Z,23.63
2018-12-15T20:50:34.915Z,23.60
2018-12-15T20:53:04.393Z,23.60
2018-12-15T20:55:33.925Z,23.54
2018-12-15T20:58:03.312Z,23.50
2018-12-15T21:00:32.756Z,23.51
2018-12-15T21:03:02.008Z,23.48
2018-12-15T21:05:36.651Z,23.46
2018-12-15T21:08:02.638Z,23.47
2018-12-15T21:10:31.973Z,23.43
2018-12-15T21:13:01.381Z,23.45
2018-12-15T21:15:33.945Z,23.45
2018-12-15T21:18:03.242Z,23.42
2018-12-15T21:20:32.560Z,23.40
2018-12-15T21:23:02.055Z,23.41
2018-12-15T21:25:31.551Z,23.40
2018-12-15T21:28:00.848Z,23.40
2018-12-15T21:30:30.161Z,23.42
2018-12-15T21:32:59.464Z,23.37
2018-12-15T21:35:28.974Z,23.39
2018-12-15T21:37:58.289Z,23.37
2018-12-15T21:40:27.792Z,23.38
2018-12-15T21:42:57.173Z,23.38
2018-12-15T21:45:26.388Z,23.36
2018-12-15T21:47:57.750Z,23.39
2018-12-15T21:50:26.957Z,23.42
2018-12-15T21:52:56.212Z,23.40
2018-12-15T21:55:25.448Z,23.38
2018-12-15T21:57:54.903Z,23.37
2018-12-15T22:00:24.236Z,23.43
2018-12-15T22:02:53.636Z,23.44
2018-12-15T22:05:22.960Z,23.80
2018-12-15T22:07:52.331Z,23.97
2018-12-15T22:10:21.659Z,24.09
2018-12-15T22:12:50.871Z,24.11
2018-12-15T22:15:20.336Z,24.19
2018-12-15T22:17:49.740Z,23.95
2018-12-15T22:20:19.408Z,23.90
2018-12-15T22:22:48.686Z,23.89
2018-12-15T22:25:17.871Z,23.85
2018-12-15T22:27:47.152Z,23.81
2018-12-15T22:30:16.678Z,23.78
2018-12-15T22:32:46.051Z,23.70
2018-12-15T22:35:15.327Z,23.71
2018-12-15T22:37:44.659Z,23.66
2018-12-15T22:40:14.044Z,23.65
2018-12-15T22:42:43.281Z,23.59
2018-12-15T22:45:12.575Z,23.65
2018-12-15T22:47:42.077Z,23.56
2018-12-15T22:50:11.576Z,23.58
2018-12-15T22:52:40.901Z,23.50
2018-12-15T22:55:10.196Z,23.51
2018-12-15T22:57:39.602Z,23.53
2018-12-15T23:00:10.568Z,23.54
2018-12-15T23:02:39.935Z,23.47
2018-12-15T23:05:09.343Z,23.51
2018-12-15T23:07:38.759Z,23.48
2018-12-15T23:10:08.955Z,23.52
2018-12-15T23:12:38.408Z,23.53
2018-12-15T23:15:08.499Z,23.48
2018-12-15T23:17:37.851Z,23.41
2018-12-15T23:20:08.037Z,23.42
2018-12-15T23:22:37.455Z,23.41
2018-12-15T23:25:06.921Z,23.40
2018-12-15T23:27:36.336Z,23.49
2018-12-15T23:30:06.440Z,23.46
2018-12-15T23:32:35.777Z,23.48
2018-12-15T23:35:05.268Z,23.49
2018-12-15T23:37:34.671Z,23.47
2018-12-15T23:40:03.965Z,23.47
2018-12-15T23:42:33.377Z,23.44
2018-12-15T23:45:02.686Z,23.40
2018-12-15T23:47:31.916Z,23.41
2018-12-15T23:50:01.270Z,23.43
2018-12-15T23:52:30.663Z,23.41
2018-12-15T23:54:59.856Z,23.42
2018-12-15T23:57:29.385Z,23.42
2018-12-15T23:59:58.784Z,23.40
